This is the latest recevied weather packets stored in our database for station/object KG5MMT-12. If no packets are shown the sender has not sent any weather packets the latest 1 day(s).
| Time | Temp. | Humidity | Pressure | Rain* | Wind** | Luminosity | Snow |
|---|---|---|---|---|---|---|---|
| 1778097227 | 12.78° C | 43% | 0 hPa | 0 mm | - | - | - |
| 1778096627 | 13.33° C | 41% | 0 hPa | 0 mm | - | - | - |
| 1778096327 | 13.33° C | 44% | 0 hPa | 0 mm | - | - | - |
| 1778095427 | 13.33° C | 41% | 0 hPa | 0 mm | - | - | - |
| 1778093027 | 13.89° C | 40% | 0 hPa | 0 mm | - | - | - |
| 1778092127 | 12.78° C | 40% | 0 hPa | 0 mm | - | - | - |
| 1778090927 | 13.33° C | 40% | 0 hPa | 0 mm | - | - | - |
| 1778080428 | 8.89° C | 58% | 0 hPa | 0 mm | - | - | - |
| 1778079228 | 8.33° C | 58% | 0 hPa | 0 mm | - | - | - |
| 1778078628 | 7.22° C | 61% | 0 hPa | 0 mm | - | - | - |
| 1778077728 | 7.22° C | 63% | 0 hPa | 0 mm | - | - | - |
| 1778076228 | 6.11° C | 63% | 0 hPa | 0 mm | - | - | - |
| 1778075929 | 6.11° C | 62% | 0 hPa | 0 mm | - | - | - |
| 1778074128 | 6.11° C | 60% | 0 hPa | 0 mm | - | - | - |
| 1778072328 | 5.56° C | 62% | 0 hPa | 0 mm | - | - | - |
| 1778072028 | 5.56° C | 63% | 0 hPa | 0 mm | - | - | - |
| 1778071728 | 5.56° C | 64% | 0 hPa | 0 mm | - | - | - |
| 1778071430 | 5.56° C | 63% | 0 hPa | 0 mm | - | - | - |
| 1778070828 | 5° C | 65% | 0 hPa | 0 mm | - | - | - |
| 1778070589 | 5° C | 65% | 0 hPa | 0 mm | - | - | - |
| 1778070228 | 5° C | 66% | 0 hPa | 0 mm | - | - | - |
| 1778069928 | 5° C | 67% | 0 hPa | 0 mm | - | - | - |
| 1778069628 | 5.56° C | 66% | 0 hPa | 0 mm | - | - | - |
| 1778069328 | 5.56° C | 66% | 0 hPa | 0 mm | - | - | - |
| 1778069028 | 5.56° C | 65% | 0 hPa | 0 mm | - | - | - |
* Rain latest hour (hover to see other rain measurements)
** Current wind speed in m/s (hover to see current wind gust speed)